sensor_id;sensor_type;location;lat;lon;timestamp;P1;durP1;ratioP1;P2;durP2;ratioP2
64188;SDS011;50493;50.970;10.082;2023-07-31T00:02:04;3.83;;;1.65;;
64188;SDS011;50493;50.970;10.082;2023-07-31T00:04:30;3.88;;;1.52;;
64188;SDS011;50493;50.970;10.082;2023-07-31T00:06:55;4.07;;;1.60;;
64188;SDS011;50493;50.970;10.082;2023-07-31T00:09:20;3.78;;;1.52;;
64188;SDS011;50493;50.970;10.082;2023-07-31T00:11:46;5.20;;;1.90;;
64188;SDS011;50493;50.970;10.082;2023-07-31T00:14:11;3.85;;;1.60;;
64188;SDS011;50493;50.970;10.082;2023-07-31T00:16:36;5.07;;;1.80;;
64188;SDS011;50493;50.970;10.082;2023-07-31T00:19:03;4.05;;;1.60;;
64188;SDS011;50493;50.970;10.082;2023-07-31T00:21:29;5.25;;;1.73;;
64188;SDS011;50493;50.970;10.082;2023-07-31T00:23:54;3.05;;;1.60;;
64188;SDS011;50493;50.970;10.082;2023-07-31T00:26:19;3.10;;;1.70;;
64188;SDS011;50493;50.970;10.082;2023-07-31T00:28:45;3.10;;;1.70;;
64188;SDS011;50493;50.970;10.082;2023-07-31T00:31:10;3.65;;;1.70;;
64188;SDS011;50493;50.970;10.082;2023-07-31T00:33:35;2.90;;;1.83;;
64188;SDS011;50493;50.970;10.082;2023-07-31T00:36:03;3.83;;;1.70;;
64188;SDS011;50493;50.970;10.082;2023-07-31T00:38:28;3.67;;;1.70;;
64188;SDS011;50493;50.970;10.082;2023-07-31T00:40:53;2.58;;;1.70;;
64188;SDS011;50493;50.970;10.082;2023-07-31T00:43:19;3.42;;;1.67;;
64188;SDS011;50493;50.970;10.082;2023-07-31T00:45:44;3.50;;;1.83;;
64188;SDS011;50493;50.970;10.082;2023-07-31T00:48:10;4.15;;;1.50;;
64188;SDS011;50493;50.970;10.082;2023-07-31T00:50:36;4.22;;;1.80;;
64188;SDS011;50493;50.970;10.082;2023-07-31T00:53:04;3.45;;;1.70;;
64188;SDS011;50493;50.970;10.082;2023-07-31T00:55:29;3.83;;;1.67;;
64188;SDS011;50493;50.970;10.082;2023-07-31T00:57:55;3.35;;;1.85;;
64188;SDS011;50493;50.970;10.082;2023-07-31T01:00:21;3.72;;;1.83;;
64188;SDS011;50493;50.970;10.082;2023-07-31T01:02:46;3.78;;;1.70;;
64188;SDS011;50493;50.970;10.082;2023-07-31T01:05:13;5.20;;;1.80;;
64188;SDS011;50493;50.970;10.082;2023-07-31T01:07:40;3.03;;;1.70;;
64188;SDS011;50493;50.970;10.082;2023-07-31T01:10:13;4.72;;;1.63;;
64188;SDS011;50493;50.970;10.082;2023-07-31T01:12:41;4.65;;;1.67;;
64188;SDS011;50493;50.970;10.082;2023-07-31T01:15:09;2.10;;;1.50;;
64188;SDS011;50493;50.970;10.082;2023-07-31T01:17:39;3.00;;;1.70;;
64188;SDS011;50493;50.970;10.082;2023-07-31T01:20:08;3.22;;;1.60;;
64188;SDS011;50493;50.970;10.082;2023-07-31T01:22:49;5.90;;;1.90;;
64188;SDS011;50493;50.970;10.082;2023-07-31T01:25:34;3.03;;;1.55;;
64188;SDS011;50493;50.970;10.082;2023-07-31T01:28:17;2.13;;;1.50;;
64188;SDS011;50493;50.970;10.082;2023-07-31T01:30:46;4.03;;;1.95;;
64188;SDS011;50493;50.970;10.082;2023-07-31T01:33:13;4.57;;;2.00;;
64188;SDS011;50493;50.970;10.082;2023-07-31T01:35:39;4.60;;;1.85;;
64188;SDS011;50493;50.970;10.082;2023-07-31T01:38:05;3.72;;;1.85;;
64188;SDS011;50493;50.970;10.082;2023-07-31T01:40:31;5.07;;;1.90;;
64188;SDS011;50493;50.970;10.082;2023-07-31T01:42:58;3.35;;;1.80;;
64188;SDS011;50493;50.970;10.082;2023-07-31T01:45:23;3.45;;;1.90;;
64188;SDS011;50493;50.970;10.082;2023-07-31T01:47:49;4.07;;;2.00;;
64188;SDS011;50493;50.970;10.082;2023-07-31T01:50:14;4.88;;;1.90;;
64188;SDS011;50493;50.970;10.082;2023-07-31T01:52:39;3.60;;;1.75;;
64188;SDS011;50493;50.970;10.082;2023-07-31T01:55:05;4.10;;;2.03;;
64188;SDS011;50493;50.970;10.082;2023-07-31T01:57:31;5.20;;;2.30;;
64188;SDS011;50493;50.970;10.082;2023-07-31T01:59:57;4.95;;;1.90;;
64188;SDS011;50493;50.970;10.082;2023-07-31T02:02:23;3.70;;;1.70;;
64188;SDS011;50493;50.970;10.082;2023-07-31T02:04:48;5.63;;;2.00;;
64188;SDS011;50493;50.970;10.082;2023-07-31T02:07:14;5.18;;;1.70;;
64188;SDS011;50493;50.970;10.082;2023-07-31T02:09:39;5.03;;;1.92;;
64188;SDS011;50493;50.970;10.082;2023-07-31T02:12:05;4.97;;;1.80;;
64188;SDS011;50493;50.970;10.082;2023-07-31T02:14:33;3.97;;;1.98;;
64188;SDS011;50493;50.970;10.082;2023-07-31T02:17:00;3.65;;;2.00;;
64188;SDS011;50493;50.970;10.082;2023-07-31T02:19:25;3.67;;;2.10;;
64188;SDS011;50493;50.970;10.082;2023-07-31T02:21:51;2.70;;;1.58;;
64188;SDS011;50493;50.970;10.082;2023-07-31T02:24:16;4.82;;;2.00;;
64188;SDS011;50493;50.970;10.082;2023-07-31T02:26:42;3.97;;;1.80;;
64188;SDS011;50493;50.970;10.082;2023-07-31T02:29:07;8.23;;;2.40;;
64188;SDS011;50493;50.970;10.082;2023-07-31T02:31:33;3.45;;;1.95;;
64188;SDS011;50493;50.970;10.082;2023-07-31T02:34:00;5.15;;;2.10;;
64188;SDS011;50493;50.970;10.082;2023-07-31T02:36:25;6.03;;;2.45;;
64188;SDS011;50493;50.970;10.082;2023-07-31T02:38:50;4.45;;;2.10;;
64188;SDS011;50493;50.970;10.082;2023-07-31T02:41:16;6.03;;;2.13;;
64188;SDS011;50493;50.970;10.082;2023-07-31T02:43:41;5.05;;;2.05;;
64188;SDS011;50493;50.970;10.082;2023-07-31T02:46:07;3.45;;;1.90;;
64188;SDS011;50493;50.970;10.082;2023-07-31T02:48:32;5.78;;;1.98;;
64188;SDS011;50493;50.970;10.082;2023-07-31T02:50:59;5.65;;;2.33;;
64188;SDS011;50493;50.970;10.082;2023-07-31T02:53:25;4.25;;;2.15;;
64188;SDS011;50493;50.970;10.082;2023-07-31T02:55:50;5.68;;;2.17;;
64188;SDS011;50493;50.970;10.082;2023-07-31T02:58:15;6.05;;;2.13;;
64188;SDS011;50493;50.970;10.082;2023-07-31T03:00:41;5.85;;;2.20;;
64188;SDS011;50493;50.970;10.082;2023-07-31T03:03:07;4.28;;;1.88;;
64188;SDS011;50493;50.970;10.082;2023-07-31T03:05:32;3.65;;;1.90;;
64188;SDS011;50493;50.970;10.082;2023-07-31T03:07:59;3.78;;;2.10;;
64188;SDS011;50493;50.970;10.082;2023-07-31T03:10:24;4.90;;;1.90;;
64188;SDS011;50493;50.970;10.082;2023-07-31T03:12:50;3.33;;;1.95;;
64188;SDS011;50493;50.970;10.082;2023-07-31T03:15:15;4.85;;;2.03;;
64188;SDS011;50493;50.970;10.082;2023-07-31T03:17:41;3.40;;;2.05;;
64188;SDS011;50493;50.970;10.082;2023-07-31T03:20:06;5.38;;;2.28;;
64188;SDS011;50493;50.970;10.082;2023-07-31T03:22:33;5.10;;;2.00;;
64188;SDS011;50493;50.970;10.082;2023-07-31T03:25:01;6.28;;;2.00;;
64188;SDS011;50493;50.970;10.082;2023-07-31T03:27:26;3.65;;;2.00;;
64188;SDS011;50493;50.970;10.082;2023-07-31T03:29:52;4.68;;;2.20;;
64188;SDS011;50493;50.970;10.082;2023-07-31T03:32:18;4.10;;;1.90;;
64188;SDS011;50493;50.970;10.082;2023-07-31T03:34:43;4.25;;;2.10;;
64188;SDS011;50493;50.970;10.082;2023-07-31T03:37:09;6.70;;;2.38;;
64188;SDS011;50493;50.970;10.082;2023-07-31T03:39:34;6.20;;;2.55;;
64188;SDS011;50493;50.970;10.082;2023-07-31T03:42:01;4.10;;;2.08;;
64188;SDS011;50493;50.970;10.082;2023-07-31T03:44:26;3.85;;;2.00;;
64188;SDS011;50493;50.970;10.082;2023-07-31T03:46:51;4.60;;;2.08;;
64188;SDS011;50493;50.970;10.082;2023-07-31T03:49:17;6.70;;;2.20;;
64188;SDS011;50493;50.970;10.082;2023-07-31T03:51:43;6.18;;;2.25;;
64188;SDS011;50493;50.970;10.082;2023-07-31T03:54:08;4.70;;;2.20;;
64188;SDS011;50493;50.970;10.082;2023-07-31T03:56:33;7.32;;;2.42;;
64188;SDS011;50493;50.970;10.082;2023-07-31T03:59:00;4.93;;;2.20;;
64188;SDS011;50493;50.970;10.082;2023-07-31T04:01:26;5.10;;;2.53;;
64188;SDS011;50493;50.970;10.082;2023-07-31T04:03:51;3.70;;;2.05;;
64188;SDS011;50493;50.970;10.082;2023-07-31T04:06:17;4.13;;;2.10;;
64188;SDS011;50493;50.970;10.082;2023-07-31T04:08:43;6.45;;;2.40;;
64188;SDS011;50493;50.970;10.082;2023-07-31T04:11:08;4.22;;;2.20;;
64188;SDS011;50493;50.970;10.082;2023-07-31T04:13:34;4.85;;;2.13;;
64188;SDS011;50493;50.970;10.082;2023-07-31T04:16:00;3.65;;;2.03;;
64188;SDS011;50493;50.970;10.082;2023-07-31T04:18:26;3.67;;;1.70;;
64188;SDS011;50493;50.970;10.082;2023-07-31T04:20:51;3.90;;;2.05;;
64188;SDS011;50493;50.970;10.082;2023-07-31T04:23:17;3.65;;;1.70;;
64188;SDS011;50493;50.970;10.082;2023-07-31T04:25:42;4.82;;;2.00;;
64188;SDS011;50493;50.970;10.082;2023-07-31T04:28:07;6.60;;;2.33;;
64188;SDS011;50493;50.970;10.082;2023-07-31T04:30:33;6.30;;;2.38;;
64188;SDS011;50493;50.970;10.082;2023-07-31T04:33:00;5.63;;;2.20;;
64188;SDS011;50493;50.970;10.082;2023-07-31T04:35:25;5.53;;;2.30;;
64188;SDS011;50493;50.970;10.082;2023-07-31T04:37:50;4.20;;;2.05;;
64188;SDS011;50493;50.970;10.082;2023-07-31T04:40:16;5.80;;;2.08;;
64188;SDS011;50493;50.970;10.082;2023-07-31T04:42:41;3.25;;;1.85;;
64188;SDS011;50493;50.970;10.082;2023-07-31T04:45:08;4.72;;;2.20;;
64188;SDS011;50493;50.970;10.082;2023-07-31T04:47:34;3.85;;;1.80;;
64188;SDS011;50493;50.970;10.082;2023-07-31T04:50:01;4.05;;;2.10;;
64188;SDS011;50493;50.970;10.082;2023-07-31T04:52:26;3.65;;;2.17;;
64188;SDS011;50493;50.970;10.082;2023-07-31T04:54:52;3.58;;;2.00;;
64188;SDS011;50493;50.970;10.082;2023-07-31T04:57:17;7.10;;;2.47;;
64188;SDS011;50493;50.970;10.082;2023-07-31T04:59:43;6.55;;;2.15;;
64188;SDS011;50493;50.970;10.082;2023-07-31T05:02:08;6.00;;;2.33;;
64188;SDS011;50493;50.970;10.082;2023-07-31T05:04:34;6.38;;;2.45;;
64188;SDS011;50493;50.970;10.082;2023-07-31T05:07:00;4.65;;;2.00;;
64188;SDS011;50493;50.970;10.082;2023-07-31T05:09:26;4.97;;;1.88;;
64188;SDS011;50493;50.970;10.082;2023-07-31T05:11:51;5.47;;;2.03;;
64188;SDS011;50493;50.970;10.082;2023-07-31T05:14:17;6.90;;;2.47;;
64188;SDS011;50493;50.970;10.082;2023-07-31T05:16:42;3.15;;;2.00;;
64188;SDS011;50493;50.970;10.082;2023-07-31T05:19:07;5.13;;;2.15;;
64188;SDS011;50493;50.970;10.082;2023-07-31T05:21:33;5.53;;;2.10;;
64188;SDS011;50493;50.970;10.082;2023-07-31T05:23:59;2.75;;;1.83;;
64188;SDS011;50493;50.970;10.082;2023-07-31T05:26:25;5.18;;;2.22;;
64188;SDS011;50493;50.970;10.082;2023-07-31T05:28:50;4.55;;;2.08;;
64188;SDS011;50493;50.970;10.082;2023-07-31T05:31:16;5.82;;;2.65;;
64188;SDS011;50493;50.970;10.082;2023-07-31T05:33:41;7.15;;;2.35;;
64188;SDS011;50493;50.970;10.082;2023-07-31T05:36:06;5.20;;;2.47;;
64188;SDS011;50493;50.970;10.082;2023-07-31T05:38:32;5.35;;;1.83;;
64188;SDS011;50493;50.970;10.082;2023-07-31T05:40:59;4.82;;;2.40;;
64188;SDS011;50493;50.970;10.082;2023-07-31T05:43:24;3.47;;;1.80;;
64188;SDS011;50493;50.970;10.082;2023-07-31T05:45:50;5.75;;;2.10;;
64188;SDS011;50493;50.970;10.082;2023-07-31T05:48:16;3.17;;;2.10;;
64188;SDS011;50493;50.970;10.082;2023-07-31T05:50:42;3.85;;;2.05;;
64188;SDS011;50493;50.970;10.082;2023-07-31T05:53:08;2.95;;;1.80;;
64188;SDS011;50493;50.970;10.082;2023-07-31T05:55:33;9.20;;;2.85;;
64188;SDS011;50493;50.970;10.082;2023-07-31T05:58:00;5.93;;;2.20;;
64188;SDS011;50493;50.970;10.082;2023-07-31T06:00:25;3.08;;;1.83;;
64188;SDS011;50493;50.970;10.082;2023-07-31T06:02:52;5.80;;;2.47;;
64188;SDS011;50493;50.970;10.082;2023-07-31T06:05:18;5.15;;;2.33;;
64188;SDS011;50493;50.970;10.082;2023-07-31T06:07:43;5.22;;;2.40;;
64188;SDS011;50493;50.970;10.082;2023-07-31T06:10:09;6.78;;;2.55;;
64188;SDS011;50493;50.970;10.082;2023-07-31T06:12:34;4.75;;;2.25;;
64188;SDS011;50493;50.970;10.082;2023-07-31T06:15:02;6.70;;;2.70;;
64188;SDS011;50493;50.970;10.082;2023-07-31T06:17:28;3.65;;;2.03;;
64188;SDS011;50493;50.970;10.082;2023-07-31T06:19:54;3.65;;;2.13;;
64188;SDS011;50493;50.970;10.082;2023-07-31T06:22:21;8.27;;;2.42;;
64188;SDS011;50493;50.970;10.082;2023-07-31T06:24:46;6.57;;;2.65;;
64188;SDS011;50493;50.970;10.082;2023-07-31T06:27:12;6.63;;;2.75;;
64188;SDS011;50493;50.970;10.082;2023-07-31T06:29:37;6.57;;;2.88;;
64188;SDS011;50493;50.970;10.082;2023-07-31T06:32:04;6.20;;;2.60;;
64188;SDS011;50493;50.970;10.082;2023-07-31T06:34:29;3.55;;;1.85;;
64188;SDS011;50493;50.970;10.082;2023-07-31T06:36:55;4.32;;;2.42;;
64188;SDS011;50493;50.970;10.082;2023-07-31T06:39:20;4.22;;;2.00;;
64188;SDS011;50493;50.970;10.082;2023-07-31T06:41:46;6.15;;;2.60;;
64188;SDS011;50493;50.970;10.082;2023-07-31T06:44:11;6.22;;;2.38;;
64188;SDS011;50493;50.970;10.082;2023-07-31T06:46:37;3.92;;;2.20;;
64188;SDS011;50493;50.970;10.082;2023-07-31T06:49:04;5.63;;;2.40;;
64188;SDS011;50493;50.970;10.082;2023-07-31T06:51:29;3.80;;;2.10;;
64188;SDS011;50493;50.970;10.082;2023-07-31T06:53:56;6.90;;;2.33;;
64188;SDS011;50493;50.970;10.082;2023-07-31T06:56:21;5.28;;;2.10;;
64188;SDS011;50493;50.970;10.082;2023-07-31T06:58:47;3.05;;;1.80;;
64188;SDS011;50493;50.970;10.082;2023-07-31T07:01:12;5.72;;;1.88;;
64188;SDS011;50493;50.970;10.082;2023-07-31T07:03:38;4.55;;;2.20;;
64188;SDS011;50493;50.970;10.082;2023-07-31T07:06:05;4.13;;;2.15;;
64188;SDS011;50493;50.970;10.082;2023-07-31T07:08:30;5.05;;;2.00;;
64188;SDS011;50493;50.970;10.082;2023-07-31T07:10:56;4.65;;;2.10;;
64188;SDS011;50493;50.970;10.082;2023-07-31T07:13:22;3.45;;;1.90;;
64188;SDS011;50493;50.970;10.082;2023-07-31T07:15:47;5.32;;;2.08;;
64188;SDS011;50493;50.970;10.082;2023-07-31T07:18:13;5.03;;;2.30;;
64188;SDS011;50493;50.970;10.082;2023-07-31T07:20:39;6.18;;;2.20;;
64188;SDS011;50493;50.970;10.082;2023-07-31T07:23:06;5.78;;;2.47;;
64188;SDS011;50493;50.970;10.082;2023-07-31T07:25:31;6.07;;;2.40;;
64188;SDS011;50493;50.970;10.082;2023-07-31T07:27:56;6.43;;;2.45;;
64188;SDS011;50493;50.970;10.082;2023-07-31T07:30:22;4.05;;;2.15;;
64188;SDS011;50493;50.970;10.082;2023-07-31T07:32:50;4.50;;;2.03;;
64188;SDS011;50493;50.970;10.082;2023-07-31T07:35:15;4.72;;;2.10;;
64188;SDS011;50493;50.970;10.082;2023-07-31T07:37:41;5.78;;;2.20;;
64188;SDS011;50493;50.970;10.082;2023-07-31T07:40:08;6.07;;;2.47;;
64188;SDS011;50493;50.970;10.082;2023-07-31T07:42:34;6.85;;;2.22;;
64188;SDS011;50493;50.970;10.082;2023-07-31T07:44:59;5.47;;;2.08;;
64188;SDS011;50493;50.970;10.082;2023-07-31T07:47:24;6.72;;;2.63;;
64188;SDS011;50493;50.970;10.082;2023-07-31T07:49:50;4.45;;;2.15;;
64188;SDS011;50493;50.970;10.082;2023-07-31T07:52:15;3.50;;;1.90;;
64188;SDS011;50493;50.970;10.082;2023-07-31T07:54:41;6.35;;;2.50;;
64188;SDS011;50493;50.970;10.082;2023-07-31T07:57:07;5.70;;;2.30;;
64188;SDS011;50493;50.970;10.082;2023-07-31T07:59:33;4.90;;;2.38;;
64188;SDS011;50493;50.970;10.082;2023-07-31T08:01:58;5.25;;;2.63;;
64188;SDS011;50493;50.970;10.082;2023-07-31T08:04:23;5.93;;;2.38;;
64188;SDS011;50493;50.970;10.082;2023-07-31T08:06:49;4.63;;;2.20;;
64188;SDS011;50493;50.970;10.082;2023-07-31T08:09:14;5.90;;;2.60;;
64188;SDS011;50493;50.970;10.082;2023-07-31T08:11:40;5.18;;;2.33;;
64188;SDS011;50493;50.970;10.082;2023-07-31T08:14:07;5.40;;;2.60;;
64188;SDS011;50493;50.970;10.082;2023-07-31T08:16:32;5.25;;;2.42;;
64188;SDS011;50493;50.970;10.082;2023-07-31T08:18:58;6.70;;;2.40;;
64188;SDS011;50493;50.970;10.082;2023-07-31T08:21:23;6.55;;;2.40;;
64188;SDS011;50493;50.970;10.082;2023-07-31T08:23:48;6.43;;;2.35;;
64188;SDS011;50493;50.970;10.082;2023-07-31T08:26:14;5.65;;;2.47;;
64188;SDS011;50493;50.970;10.082;2023-07-31T08:28:40;4.18;;;2.50;;
64188;SDS011;50493;50.970;10.082;2023-07-31T08:31:07;4.95;;;2.28;;
64188;SDS011;50493;50.970;10.082;2023-07-31T08:33:32;4.13;;;2.28;;
64188;SDS011;50493;50.970;10.082;2023-07-31T08:35:58;6.30;;;2.60;;
64188;SDS011;50493;50.970;10.082;2023-07-31T08:38:25;6.03;;;3.03;;
64188;SDS011;50493;50.970;10.082;2023-07-31T08:40:51;5.43;;;2.40;;
64188;SDS011;50493;50.970;10.082;2023-07-31T08:43:16;5.30;;;2.42;;
64188;SDS011;50493;50.970;10.082;2023-07-31T08:45:43;6.50;;;2.60;;
64188;SDS011;50493;50.970;10.082;2023-07-31T08:48:11;3.97;;;2.20;;
64188;SDS011;50493;50.970;10.082;2023-07-31T08:50:37;6.55;;;2.58;;
64188;SDS011;50493;50.970;10.082;2023-07-31T08:53:03;6.03;;;2.60;;
64188;SDS011;50493;50.970;10.082;2023-07-31T08:55:28;5.15;;;2.50;;
64188;SDS011;50493;50.970;10.082;2023-07-31T08:57:54;5.07;;;2.42;;
64188;SDS011;50493;50.970;10.082;2023-07-31T09:00:21;6.40;;;2.47;;
64188;SDS011;50493;50.970;10.082;2023-07-31T09:02:51;9.68;;;2.80;;
64188;SDS011;50493;50.970;10.082;2023-07-31T09:05:22;5.63;;;2.55;;
64188;SDS011;50493;50.970;10.082;2023-07-31T09:07:48;5.82;;;2.40;;
64188;SDS011;50493;50.970;10.082;2023-07-31T09:10:14;5.25;;;2.60;;
64188;SDS011;50493;50.970;10.082;2023-07-31T09:12:40;4.53;;;2.45;;
64188;SDS011;50493;50.970;10.082;2023-07-31T09:15:06;7.43;;;3.00;;
64188;SDS011;50493;50.970;10.082;2023-07-31T09:17:34;6.03;;;2.72;;
64188;SDS011;50493;50.970;10.082;2023-07-31T09:20:14;6.10;;;2.83;;
64188;SDS011;50493;50.970;10.082;2023-07-31T09:25:14;4.43;;;2.20;;
64188;SDS011;50493;50.970;10.082;2023-07-31T09:27:47;7.70;;;2.70;;
64188;SDS011;50493;50.970;10.082;2023-07-31T09:30:16;6.43;;;2.60;;
64188;SDS011;50493;50.970;10.082;2023-07-31T09:32:43;4.97;;;2.75;;
64188;SDS011;50493;50.970;10.082;2023-07-31T09:35:19;7.95;;;2.65;;
64188;SDS011;50493;50.970;10.082;2023-07-31T09:37:49;6.35;;;2.75;;
64188;SDS011;50493;50.970;10.082;2023-07-31T09:40:24;9.60;;;3.15;;
64188;SDS011;50493;50.970;10.082;2023-07-31T09:42:51;6.65;;;2.63;;
64188;SDS011;50493;50.970;10.082;2023-07-31T09:45:16;5.95;;;2.63;;
64188;SDS011;50493;50.970;10.082;2023-07-31T09:47:45;7.53;;;3.25;;
64188;SDS011;50493;50.970;10.082;2023-07-31T09:50:12;5.47;;;2.50;;
64188;SDS011;50493;50.970;10.082;2023-07-31T09:52:39;5.80;;;2.55;;
64188;SDS011;50493;50.970;10.082;2023-07-31T09:55:07;8.60;;;2.80;;
64188;SDS011;50493;50.970;10.082;2023-07-31T09:57:33;6.18;;;2.70;;
64188;SDS011;50493;50.970;10.082;2023-07-31T09:59:59;7.68;;;2.78;;
64188;SDS011;50493;50.970;10.082;2023-07-31T10:02:26;5.90;;;2.55;;
64188;SDS011;50493;50.970;10.082;2023-07-31T10:04:53;5.70;;;2.92;;
64188;SDS011;50493;50.970;10.082;2023-07-31T10:07:23;6.15;;;2.80;;
64188;SDS011;50493;50.970;10.082;2023-07-31T10:09:50;5.15;;;2.83;;
64188;SDS011;50493;50.970;10.082;2023-07-31T10:12:18;6.47;;;3.08;;
64188;SDS011;50493;50.970;10.082;2023-07-31T10:14:47;6.15;;;2.72;;
64188;SDS011;50493;50.970;10.082;2023-07-31T10:17:13;5.78;;;2.80;;
64188;SDS011;50493;50.970;10.082;2023-07-31T10:19:39;6.55;;;3.00;;
64188;SDS011;50493;50.970;10.082;2023-07-31T10:22:05;5.75;;;3.17;;
64188;SDS011;50493;50.970;10.082;2023-07-31T10:24:32;6.55;;;3.20;;
64188;SDS011;50493;50.970;10.082;2023-07-31T10:26:59;5.70;;;2.60;;
64188;SDS011;50493;50.970;10.082;2023-07-31T10:29:27;6.75;;;3.17;;
64188;SDS011;50493;50.970;10.082;2023-07-31T10:31:54;5.15;;;2.92;;
64188;SDS011;50493;50.970;10.082;2023-07-31T10:34:22;6.00;;;3.00;;
64188;SDS011;50493;50.970;10.082;2023-07-31T10:36:48;6.07;;;3.13;;
64188;SDS011;50493;50.970;10.082;2023-07-31T10:42:09;5.65;;;3.15;;
64188;SDS011;50493;50.970;10.082;2023-07-31T10:44:36;9.00;;;3.38;;
64188;SDS011;50493;50.970;10.082;2023-07-31T10:47:02;6.20;;;2.80;;
64188;SDS011;50493;50.970;10.082;2023-07-31T10:49:28;5.90;;;2.90;;
64188;SDS011;50493;50.970;10.082;2023-07-31T10:51:56;5.72;;;2.92;;
64188;SDS011;50493;50.970;10.082;2023-07-31T10:54:22;6.00;;;3.10;;
64188;SDS011;50493;50.970;10.082;2023-07-31T10:56:49;4.70;;;2.85;;
64188;SDS011;50493;50.970;10.082;2023-07-31T10:59:15;5.82;;;3.05;;
64188;SDS011;50493;50.970;10.082;2023-07-31T11:01:53;5.40;;;3.45;;
64188;SDS011;50493;50.970;10.082;2023-07-31T11:04:23;5.78;;;3.40;;
64188;SDS011;50493;50.970;10.082;2023-07-31T11:06:56;6.43;;;3.25;;
64188;SDS011;50493;50.970;10.082;2023-07-31T11:09:22;5.72;;;3.28;;
64188;SDS011;50493;50.970;10.082;2023-07-31T11:11:47;8.80;;;3.85;;
64188;SDS011;50493;50.970;10.082;2023-07-31T11:14:15;6.38;;;3.17;;
64188;SDS011;50493;50.970;10.082;2023-07-31T11:16:40;7.38;;;3.33;;
64188;SDS011;50493;50.970;10.082;2023-07-31T11:19:09;7.53;;;3.30;;
64188;SDS011;50493;50.970;10.082;2023-07-31T11:21:34;6.20;;;2.90;;
64188;SDS011;50493;50.970;10.082;2023-07-31T11:24:00;7.22;;;3.10;;
64188;SDS011;50493;50.970;10.082;2023-07-31T11:26:25;5.75;;;2.88;;
64188;SDS011;50493;50.970;10.082;2023-07-31T11:28:53;6.90;;;3.33;;
64188;SDS011;50493;50.970;10.082;2023-07-31T11:31:18;5.68;;;3.20;;
64188;SDS011;50493;50.970;10.082;2023-07-31T11:33:44;7.10;;;3.60;;
64188;SDS011;50493;50.970;10.082;2023-07-31T11:36:15;5.70;;;2.75;;
64188;SDS011;50493;50.970;10.082;2023-07-31T11:38:41;7.10;;;2.65;;
64188;SDS011;50493;50.970;10.082;2023-07-31T11:41:07;6.53;;;2.97;;
64188;SDS011;50493;50.970;10.082;2023-07-31T11:43:32;6.57;;;3.03;;
64188;SDS011;50493;50.970;10.082;2023-07-31T11:45:58;6.75;;;2.83;;
64188;SDS011;50493;50.970;10.082;2023-07-31T11:50:55;5.35;;;2.60;;
64188;SDS011;50493;50.970;10.082;2023-07-31T11:53:25;5.10;;;2.63;;
64188;SDS011;50493;50.970;10.082;2023-07-31T11:55:53;6.07;;;2.83;;
64188;SDS011;50493;50.970;10.082;2023-07-31T11:58:20;4.80;;;2.80;;
64188;SDS011;50493;50.970;10.082;2023-07-31T12:00:46;5.70;;;2.22;;
64188;SDS011;50493;50.970;10.082;2023-07-31T12:03:13;5.03;;;2.70;;
64188;SDS011;50493;50.970;10.082;2023-07-31T12:05:39;5.90;;;2.50;;
64188;SDS011;50493;50.970;10.082;2023-07-31T12:08:08;5.45;;;2.78;;
64188;SDS011;50493;50.970;10.082;2023-07-31T12:10:37;7.05;;;2.60;;
64188;SDS011;50493;50.970;10.082;2023-07-31T12:13:05;5.85;;;2.53;;
64188;SDS011;50493;50.970;10.082;2023-07-31T12:15:35;7.90;;;4.03;;
64188;SDS011;50493;50.970;10.082;2023-07-31T12:18:06;7.28;;;3.65;;
64188;SDS011;50493;50.970;10.082;2023-07-31T12:20:33;7.15;;;4.20;;
64188;SDS011;50493;50.970;10.082;2023-07-31T12:22:59;7.35;;;2.97;;
64188;SDS011;50493;50.970;10.082;2023-07-31T12:25:28;7.28;;;4.22;;
64188;SDS011;50493;50.970;10.082;2023-07-31T12:30:27;6.43;;;3.25;;
64188;SDS011;50493;50.970;10.082;2023-07-31T12:32:53;7.65;;;3.78;;
64188;SDS011;50493;50.970;10.082;2023-07-31T12:35:19;6.53;;;2.92;;
64188;SDS011;50493;50.970;10.082;2023-07-31T12:37:45;6.22;;;2.97;;
64188;SDS011;50493;50.970;10.082;2023-07-31T12:40:10;7.20;;;4.13;;
64188;SDS011;50493;50.970;10.082;2023-07-31T12:42:36;7.43;;;4.00;;
64188;SDS011;50493;50.970;10.082;2023-07-31T12:45:03;7.20;;;3.22;;
64188;SDS011;50493;50.970;10.082;2023-07-31T12:47:29;6.97;;;3.17;;
64188;SDS011;50493;50.970;10.082;2023-07-31T12:49:55;5.47;;;2.75;;
64188;SDS011;50493;50.970;10.082;2023-07-31T12:52:20;7.53;;;3.28;;
64188;SDS011;50493;50.970;10.082;2023-07-31T12:54:45;5.55;;;3.45;;
64188;SDS011;50493;50.970;10.082;2023-07-31T12:57:11;6.57;;;3.92;;
64188;SDS011;50493;50.970;10.082;2023-07-31T12:59:36;6.15;;;3.22;;
64188;SDS011;50493;50.970;10.082;2023-07-31T13:02:03;7.32;;;2.60;;
64188;SDS011;50493;50.970;10.082;2023-07-31T13:04:29;6.90;;;3.30;;
64188;SDS011;50493;50.970;10.082;2023-07-31T13:06:54;5.57;;;3.40;;
64188;SDS011;50493;50.970;10.082;2023-07-31T13:09:20;5.47;;;2.80;;
64188;SDS011;50493;50.970;10.082;2023-07-31T13:11:45;6.75;;;3.35;;
64188;SDS011;50493;50.970;10.082;2023-07-31T13:14:11;6.55;;;3.50;;
64188;SDS011;50493;50.970;10.082;2023-07-31T13:16:37;6.20;;;3.55;;
64188;SDS011;50493;50.970;10.082;2023-07-31T13:19:04;8.55;;;2.80;;
64188;SDS011;50493;50.970;10.082;2023-07-31T13:21:29;6.65;;;2.95;;
64188;SDS011;50493;50.970;10.082;2023-07-31T13:23:54;4.90;;;2.90;;
64188;SDS011;50493;50.970;10.082;2023-07-31T13:26:22;6.50;;;2.88;;
64188;SDS011;50493;50.970;10.082;2023-07-31T13:28:48;8.18;;;3.08;;
64188;SDS011;50493;50.970;10.082;2023-07-31T13:31:14;8.18;;;3.10;;
64188;SDS011;50493;50.970;10.082;2023-07-31T13:33:39;6.95;;;3.10;;
64188;SDS011;50493;50.970;10.082;2023-07-31T13:36:06;6.25;;;2.90;;
64188;SDS011;50493;50.970;10.082;2023-07-31T13:38:31;6.28;;;2.88;;
64188;SDS011;50493;50.970;10.082;2023-07-31T13:40:57;5.25;;;2.67;;
64188;SDS011;50493;50.970;10.082;2023-07-31T13:43:22;5.82;;;2.72;;
64188;SDS011;50493;50.970;10.082;2023-07-31T13:45:48;6.85;;;2.83;;
64188;SDS011;50493;50.970;10.082;2023-07-31T13:48:13;5.32;;;2.75;;
64188;SDS011;50493;50.970;10.082;2023-07-31T13:50:39;5.95;;;2.90;;
64188;SDS011;50493;50.970;10.082;2023-07-31T13:53:05;4.53;;;2.80;;
64188;SDS011;50493;50.970;10.082;2023-07-31T13:55:31;6.97;;;3.05;;
64188;SDS011;50493;50.970;10.082;2023-07-31T13:57:56;6.25;;;2.88;;
64188;SDS011;50493;50.970;10.082;2023-07-31T14:00:22;5.95;;;2.90;;
64188;SDS011;50493;50.970;10.082;2023-07-31T14:02:47;6.78;;;3.15;;
64188;SDS011;50493;50.970;10.082;2023-07-31T14:05:13;7.45;;;3.05;;
64188;SDS011;50493;50.970;10.082;2023-07-31T14:07:38;6.97;;;2.78;;
64188;SDS011;50493;50.970;10.082;2023-07-31T14:10:05;7.95;;;2.97;;
64188;SDS011;50493;50.970;10.082;2023-07-31T14:12:31;6.18;;;3.05;;
64188;SDS011;50493;50.970;10.082;2023-07-31T14:14:57;7.40;;;3.03;;
64188;SDS011;50493;50.970;10.082;2023-07-31T14:17:22;6.20;;;2.80;;
64188;SDS011;50493;50.970;10.082;2023-07-31T14:19:47;5.72;;;2.88;;
64188;SDS011;50493;50.970;10.082;2023-07-31T14:22:13;7.80;;;3.10;;
64188;SDS011;50493;50.970;10.082;2023-07-31T14:24:38;5.85;;;2.83;;
64188;SDS011;50493;50.970;10.082;2023-07-31T14:27:05;8.75;;;2.80;;
64188;SDS011;50493;50.970;10.082;2023-07-31T14:29:31;5.57;;;3.10;;
64188;SDS011;50493;50.970;10.082;2023-07-31T14:31:56;5.28;;;2.70;;
64188;SDS011;50493;50.970;10.082;2023-07-31T14:34:22;8.35;;;3.22;;
64188;SDS011;50493;50.970;10.082;2023-07-31T14:36:47;7.80;;;2.83;;
64188;SDS011;50493;50.970;10.082;2023-07-31T14:39:13;5.35;;;2.60;;